sensor_id;sensor_type;location;lat;lon;timestamp;pressure;altitude;pressure_sealevel;temperature;humidity
32642;BME280;19323;56.072;9.698;2023-03-20T00:01:21;100567.22;;;27.14;40.23
32642;BME280;19323;56.072;9.698;2023-03-20T00:03:47;100569.69;;;27.16;39.94
32642;BME280;19323;56.072;9.698;2023-03-20T00:06:16;100574.25;;;27.15;39.96
32642;BME280;19323;56.072;9.698;2023-03-20T00:08:42;100580.66;;;27.14;39.93
32642;BME280;19323;56.072;9.698;2023-03-20T00:13:54;100581.66;;;27.13;39.97
32642;BME280;19323;56.072;9.698;2023-03-20T00:16:20;100577.31;;;27.12;39.86
32642;BME280;19323;56.072;9.698;2023-03-20T00:18:46;100573.78;;;27.11;40.32
32642;BME280;19323;56.072;9.698;2023-03-20T00:21:15;100587.03;;;27.13;40.21
32642;BME280;19323;56.072;9.698;2023-03-20T00:23:41;100579.16;;;27.11;40.20
32642;BME280;19323;56.072;9.698;2023-03-20T00:26:07;100573.94;;;27.10;39.87
32642;BME280;19323;56.072;9.698;2023-03-20T00:28:37;100572.91;;;27.11;40.22
32642;BME280;19323;56.072;9.698;2023-03-20T00:31:05;100573.94;;;27.10;40.33
32642;BME280;19323;56.072;9.698;2023-03-20T00:33:37;100571.25;;;27.10;40.30
32642;BME280;19323;56.072;9.698;2023-03-20T00:36:03;100570.44;;;27.09;39.96
32642;BME280;19323;56.072;9.698;2023-03-20T00:38:30;100566.03;;;27.08;40.26
32642;BME280;19323;56.072;9.698;2023-03-20T00:40:55;100568.72;;;27.08;40.28
32642;BME280;19323;56.072;9.698;2023-03-20T00:43:20;100562.34;;;27.09;39.77
32642;BME280;19323;56.072;9.698;2023-03-20T00:45:46;100559.84;;;27.08;39.81
32642;BME280;19323;56.072;9.698;2023-03-20T00:48:14;100562.53;;;27.08;40.12
32642;BME280;19323;56.072;9.698;2023-03-20T00:50:42;100559.84;;;27.08;40.11
32642;BME280;19323;56.072;9.698;2023-03-20T00:53:08;100563.53;;;27.07;40.17
32642;BME280;19323;56.072;9.698;2023-03-20T00:55:34;100560.84;;;27.07;40.24
32642;BME280;19323;56.072;9.698;2023-03-20T00:57:59;100566.22;;;27.07;40.27
32642;BME280;19323;56.072;9.698;2023-03-20T01:00:36;100567.91;;;27.08;39.86
32642;BME280;19323;56.072;9.698;2023-03-20T01:03:13;100556.34;;;26.99;39.81
32642;BME280;19323;56.072;9.698;2023-03-20T01:05:39;100569.91;;;27.06;40.22
32642;BME280;19323;56.072;9.698;2023-03-20T01:08:08;100564.53;;;27.06;39.96
32642;BME280;19323;56.072;9.698;2023-03-20T01:10:34;100570.75;;;27.06;40.17
32642;BME280;19323;56.072;9.698;2023-03-20T01:13:00;100571.78;;;27.05;40.04
32642;BME280;19323;56.072;9.698;2023-03-20T01:15:26;100571.78;;;27.05;39.83
32642;BME280;19323;56.072;9.698;2023-03-20T01:17:54;100569.25;;;27.04;39.98
32642;BME280;19323;56.072;9.698;2023-03-20T01:20:20;100558.50;;;27.04;40.06
32642;BME280;19323;56.072;9.698;2023-03-20T01:22:46;100566.56;;;27.04;40.02
32642;BME280;19323;56.072;9.698;2023-03-20T01:25:11;100568.25;;;27.05;40.12
32642;BME280;19323;56.072;9.698;2023-03-20T01:27:37;100561.19;;;27.04;40.02
32642;BME280;19323;56.072;9.698;2023-03-20T01:30:02;100561.19;;;27.04;39.75
32642;BME280;19323;56.072;9.698;2023-03-20T01:32:28;100563.88;;;27.04;39.84
32642;BME280;19323;56.072;9.698;2023-03-20T01:34:53;100563.88;;;27.04;39.67
32642;BME280;19323;56.072;9.698;2023-03-20T01:37:26;100553.13;;;27.04;39.77
32642;BME280;19323;56.072;9.698;2023-03-20T01:39:51;100551.47;;;27.03;40.07
32642;BME280;19323;56.072;9.698;2023-03-20T01:42:17;100552.47;;;27.02;39.82
32642;BME280;19323;56.072;9.698;2023-03-20T01:44:42;100549.09;;;27.00;39.85
32642;BME280;19323;56.072;9.698;2023-03-20T01:47:16;100556.34;;;26.99;40.02
32642;BME280;19323;56.072;9.698;2023-03-20T01:52:25;100552.81;;;26.99;39.95
32642;BME280;19323;56.072;9.698;2023-03-20T01:54:50;100550.13;;;26.99;40.09
32642;BME280;19323;56.072;9.698;2023-03-20T01:57:16;100543.06;;;26.98;39.89
32642;BME280;19323;56.072;9.698;2023-03-20T01:59:43;100545.75;;;26.98;39.95
32642;BME280;19323;56.072;9.698;2023-03-20T02:02:10;100538.72;;;26.97;39.93
32642;BME280;19323;56.072;9.698;2023-03-20T02:04:40;100541.41;;;26.97;40.07
32642;BME280;19323;56.072;9.698;2023-03-20T02:07:06;100538.53;;;26.98;39.56
32642;BME280;19323;56.072;9.698;2023-03-20T02:09:33;100527.97;;;26.97;40.05
32642;BME280;19323;56.072;9.698;2023-03-20T02:11:58;100529.81;;;26.96;39.90
32642;BME280;19323;56.072;9.698;2023-03-20T02:14:24;100531.66;;;26.96;39.96
32642;BME280;19323;56.072;9.698;2023-03-20T02:16:50;100532.66;;;26.95;39.68
32642;BME280;19323;56.072;9.698;2023-03-20T02:22:12;100527.28;;;26.95;39.95
32642;BME280;19323;56.072;9.698;2023-03-20T02:30:06;100518.41;;;26.94;39.62
32642;BME280;19323;56.072;9.698;2023-03-20T02:35:44;100517.75;;;26.92;39.56
32642;BME280;19323;56.072;9.698;2023-03-20T02:50:58;100498.25;;;26.90;39.52
32642;BME280;19323;56.072;9.698;2023-03-20T02:53:33;100501.78;;;26.90;39.82
32642;BME280;19323;56.072;9.698;2023-03-20T02:56:05;100497.44;;;26.89;39.61
32642;BME280;19323;56.072;9.698;2023-03-20T02:58:41;100495.75;;;26.88;39.74
32642;BME280;19323;56.072;9.698;2023-03-20T03:01:11;100501.94;;;26.89;39.88
32642;BME280;19323;56.072;9.698;2023-03-20T03:03:40;100492.22;;;26.88;39.63
32642;BME280;19323;56.072;9.698;2023-03-20T03:06:09;100489.53;;;26.88;39.69
32642;BME280;19323;56.072;9.698;2023-03-20T03:08:36;100488.69;;;26.87;39.63
32642;BME280;19323;56.072;9.698;2023-03-20T03:11:04;100478.78;;;26.88;39.70
32642;BME280;19323;56.072;9.698;2023-03-20T03:13:30;100476.09;;;26.88;39.47
32642;BME280;19323;56.072;9.698;2023-03-20T03:15:58;100475.25;;;26.87;39.96
32642;BME280;19323;56.072;9.698;2023-03-20T03:18:27;100476.09;;;26.88;39.54
32642;BME280;19323;56.072;9.698;2023-03-20T03:20:54;100480.63;;;26.87;39.56
32642;BME280;19323;56.072;9.698;2023-03-20T03:23:26;100476.09;;;26.88;39.90
32642;BME280;19323;56.072;9.698;2023-03-20T03:25:52;100475.25;;;26.87;39.83
32642;BME280;19323;56.072;9.698;2023-03-20T03:30:43;100478.13;;;26.86;39.81
32642;BME280;19323;56.072;9.698;2023-03-20T03:33:13;100485.34;;;26.85;39.94
32642;BME280;19323;56.072;9.698;2023-03-20T03:35:41;100482.66;;;26.85;39.56
32642;BME280;19323;56.072;9.698;2023-03-20T03:40:40;100487.19;;;26.85;39.82
32642;BME280;19323;56.072;9.698;2023-03-20T03:43:16;100484.50;;;26.85;39.81
32642;BME280;19323;56.072;9.698;2023-03-20T03:45:45;100487.38;;;26.83;39.83
32642;BME280;19323;56.072;9.698;2023-03-20T03:48:14;100478.28;;;26.84;39.67
32642;BME280;19323;56.072;9.698;2023-03-20T03:50:43;100482.00;;;26.83;39.62
32642;BME280;19323;56.072;9.698;2023-03-20T03:53:12;100494.56;;;26.83;39.57
32642;BME280;19323;56.072;9.698;2023-03-20T03:55:40;100484.84;;;26.82;39.49
32642;BME280;19323;56.072;9.698;2023-03-20T03:58:10;100484.69;;;26.83;39.53
32642;BME280;19323;56.072;9.698;2023-03-20T04:00:38;100481.13;;;26.83;39.34
32642;BME280;19323;56.072;9.698;2023-03-20T04:03:04;100480.31;;;26.82;39.86
32642;BME280;19323;56.072;9.698;2023-03-20T04:05:31;100489.38;;;26.81;39.44
32642;BME280;19323;56.072;9.698;2023-03-20T04:08:01;100482.16;;;26.82;39.41
32642;BME280;19323;56.072;9.698;2023-03-20T04:10:26;100481.31;;;26.81;39.31
32642;BME280;19323;56.072;9.698;2023-03-20T04:12:51;100491.06;;;26.82;39.79
32642;BME280;19323;56.072;9.698;2023-03-20T04:15:16;100487.53;;;26.82;39.64
32642;BME280;19323;56.072;9.698;2023-03-20T04:17:42;100486.69;;;26.81;39.35
32642;BME280;19323;56.072;9.698;2023-03-20T04:20:08;100485.00;;;26.80;39.76
32642;BME280;19323;56.072;9.698;2023-03-20T04:22:33;100491.25;;;26.81;39.77
32642;BME280;19323;56.072;9.698;2023-03-20T04:25:05;100482.16;;;26.82;39.62
32642;BME280;19323;56.072;9.698;2023-03-20T04:27:31;100481.31;;;26.81;39.35
32642;BME280;19323;56.072;9.698;2023-03-20T04:29:57;100485.00;;;26.80;39.64
32642;BME280;19323;56.072;9.698;2023-03-20T04:32:22;100489.38;;;26.81;39.43
32642;BME280;19323;56.072;9.698;2023-03-20T04:34:47;100482.31;;;26.80;39.29
32642;BME280;19323;56.072;9.698;2023-03-20T04:37:12;100485.22;;;26.79;39.52
32642;BME280;19323;56.072;9.698;2023-03-20T04:39:38;100486.03;;;26.79;39.37
32642;BME280;19323;56.072;9.698;2023-03-20T04:42:03;100491.56;;;26.78;39.63
32642;BME280;19323;56.072;9.698;2023-03-20T04:44:29;100489.72;;;26.78;39.54
32642;BME280;19323;56.072;9.698;2023-03-20T04:46:54;100493.25;;;26.79;39.77
32642;BME280;19323;56.072;9.698;2023-03-20T04:49:19;100493.44;;;26.77;39.79
32642;BME280;19323;56.072;9.698;2023-03-20T04:51:44;100493.44;;;26.77;39.54
32642;BME280;19323;56.072;9.698;2023-03-20T04:54:09;100497.78;;;26.78;39.92
32642;BME280;19323;56.072;9.698;2023-03-20T04:56:35;100508.72;;;26.77;39.92
32642;BME280;19323;56.072;9.698;2023-03-20T04:59:00;100500.81;;;26.75;39.83
32642;BME280;19323;56.072;9.698;2023-03-20T05:01:25;100507.03;;;26.76;39.50
32642;BME280;19323;56.072;9.698;2023-03-20T05:03:50;100498.13;;;26.75;39.69
32642;BME280;19323;56.072;9.698;2023-03-20T05:06:16;100498.13;;;26.75;39.53
32642;BME280;19323;56.072;9.698;2023-03-20T05:08:41;100505.38;;;26.75;39.54
32642;BME280;19323;56.072;9.698;2023-03-20T05:11:06;100507.19;;;26.74;39.70
32642;BME280;19323;56.072;9.698;2023-03-20T05:13:32;100513.59;;;26.73;40.03
32642;BME280;19323;56.072;9.698;2023-03-20T05:15:57;100504.69;;;26.73;39.69
32642;BME280;19323;56.072;9.698;2023-03-20T05:18:22;100518.97;;;26.73;39.99
32642;BME280;19323;56.072;9.698;2023-03-20T05:20:48;100517.09;;;26.74;39.88
32642;BME280;19323;56.072;9.698;2023-03-20T05:23:13;100517.94;;;26.74;40.04
32642;BME280;19323;56.072;9.698;2023-03-20T05:25:38;100518.13;;;26.73;40.13
32642;BME280;19323;56.072;9.698;2023-03-20T05:28:03;100520.00;;;26.72;39.86
32642;BME280;19323;56.072;9.698;2023-03-20T05:30:28;100520.00;;;26.72;40.06
32642;BME280;19323;56.072;9.698;2023-03-20T05:32:53;100524.50;;;26.71;40.08
32642;BME280;19323;56.072;9.698;2023-03-20T05:35:19;100516.81;;;26.68;39.98
32642;BME280;19323;56.072;9.698;2023-03-20T05:37:44;100518.66;;;26.68;39.87
32642;BME280;19323;56.072;9.698;2023-03-20T05:40:13;100516.81;;;26.68;40.05
32642;BME280;19323;56.072;9.698;2023-03-20T05:42:39;100516.81;;;26.68;39.99
32642;BME280;19323;56.072;9.698;2023-03-20T05:45:05;100517.63;;;26.69;39.94
32642;BME280;19323;56.072;9.698;2023-03-20T05:47:30;100520.16;;;26.70;40.27
32642;BME280;19323;56.072;9.698;2023-03-20T05:49:55;100523.00;;;26.69;39.99
32642;BME280;19323;56.072;9.698;2023-03-20T05:52:21;100528.38;;;26.69;40.14
32642;BME280;19323;56.072;9.698;2023-03-20T05:54:46;100521.34;;;26.68;40.43
32642;BME280;19323;56.072;9.698;2023-03-20T05:57:11;100524.03;;;26.68;40.54
32642;BME280;19323;56.072;9.698;2023-03-20T05:59:37;100526.88;;;26.66;40.22
32642;BME280;19323;56.072;9.698;2023-03-20T06:02:02;100527.72;;;26.67;40.30
32642;BME280;19323;56.072;9.698;2023-03-20T06:04:27;100531.22;;;26.67;40.57
32642;BME280;19323;56.072;9.698;2023-03-20T06:06:52;100525.03;;;26.67;40.25
32642;BME280;19323;56.072;9.698;2023-03-20T06:09:17;100531.22;;;26.67;40.45
32642;BME280;19323;56.072;9.698;2023-03-20T06:11:42;100528.72;;;26.66;40.29
32642;BME280;19323;56.072;9.698;2023-03-20T06:14:08;100529.56;;;26.66;40.48
32642;BME280;19323;56.072;9.698;2023-03-20T06:16:33;100526.88;;;26.66;40.40
32642;BME280;19323;56.072;9.698;2023-03-20T06:18:58;100528.72;;;26.66;40.46
32642;BME280;19323;56.072;9.698;2023-03-20T06:21:23;100528.72;;;26.66;40.28
32642;BME280;19323;56.072;9.698;2023-03-20T06:23:48;100535.09;;;26.65;40.77
32642;BME280;19323;56.072;9.698;2023-03-20T06:26:14;100527.03;;;26.65;40.56
32642;BME280;19323;56.072;9.698;2023-03-20T06:28:39;100528.91;;;26.64;40.37
32642;BME280;19323;56.072;9.698;2023-03-20T06:31:04;100528.06;;;26.64;40.43
32642;BME280;19323;56.072;9.698;2023-03-20T06:33:30;100528.06;;;26.64;40.43
32642;BME280;19323;56.072;9.698;2023-03-20T06:35:55;100521.84;;;26.63;40.58
32642;BME280;19323;56.072;9.698;2023-03-20T06:38:20;100529.06;;;26.63;40.70
32642;BME280;19323;56.072;9.698;2023-03-20T06:40:45;100521.00;;;26.63;41.06
32642;BME280;19323;56.072;9.698;2023-03-20T06:43:10;100517.47;;;26.62;40.49
32642;BME280;19323;56.072;9.698;2023-03-20T06:45:36;100516.81;;;26.60;40.59
32642;BME280;19323;56.072;9.698;2023-03-20T06:48:04;100520.31;;;26.61;40.72
32642;BME280;19323;56.072;9.698;2023-03-20T06:50:30;100515.97;;;26.60;40.76
32642;BME280;19323;56.072;9.698;2023-03-20T06:52:55;100519.66;;;26.59;40.50
32642;BME280;19323;56.072;9.698;2023-03-20T06:55:21;100520.53;;;26.59;40.73
32642;BME280;19323;56.072;9.698;2023-03-20T06:57:46;100523.38;;;26.58;40.67
32642;BME280;19323;56.072;9.698;2023-03-20T07:00:11;100531.44;;;26.58;41.08
32642;BME280;19323;56.072;9.698;2023-03-20T07:02:37;100531.44;;;26.58;41.06
32642;BME280;19323;56.072;9.698;2023-03-20T07:05:02;100528.75;;;26.58;40.69
32642;BME280;19323;56.072;9.698;2023-03-20T07:07:28;100537.63;;;26.58;41.08
32642;BME280;19323;56.072;9.698;2023-03-20T07:09:53;100539.47;;;26.58;40.70
32642;BME280;19323;56.072;9.698;2023-03-20T07:12:18;100543.19;;;26.57;40.64
32642;BME280;19323;56.072;9.698;2023-03-20T07:14:44;100545.88;;;26.57;40.59
32642;BME280;19323;56.072;9.698;2023-03-20T07:17:09;100542.16;;;26.58;40.74
32642;BME280;19323;56.072;9.698;2023-03-20T07:19:35;100552.09;;;26.57;40.51
32642;BME280;19323;56.072;9.698;2023-03-20T07:22:01;100549.41;;;26.57;41.01
32642;BME280;19323;56.072;9.698;2023-03-20T07:24:27;100553.94;;;26.57;40.45
32642;BME280;19323;56.072;9.698;2023-03-20T07:26:52;100546.88;;;26.56;40.78
32642;BME280;19323;56.072;9.698;2023-03-20T07:29:17;100547.88;;;26.55;40.89
32642;BME280;19323;56.072;9.698;2023-03-20T07:31:42;100555.94;;;26.55;40.64
32642;BME280;19323;56.072;9.698;2023-03-20T07:34:08;100558.59;;;26.55;40.72
32642;BME280;19323;56.072;9.698;2023-03-20T07:36:33;100557.75;;;26.54;40.65
32642;BME280;19323;56.072;9.698;2023-03-20T07:38:58;100556.91;;;26.54;40.96
32642;BME280;19323;56.072;9.698;2023-03-20T07:41:23;100564.97;;;26.54;40.78
32642;BME280;19323;56.072;9.698;2023-03-20T07:43:48;100561.28;;;26.55;40.60
32642;BME280;19323;56.072;9.698;2023-03-20T07:46:13;100556.91;;;26.54;41.02
32642;BME280;19323;56.072;9.698;2023-03-20T07:48:39;100559.59;;;26.54;41.01
32642;BME280;19323;56.072;9.698;2023-03-20T07:51:04;100556.09;;;26.53;41.10
32642;BME280;19323;56.072;9.698;2023-03-20T07:53:29;100561.47;;;26.53;40.52
32642;BME280;19323;56.072;9.698;2023-03-20T07:55:55;100557.28;;;26.50;40.71
32642;BME280;19323;56.072;9.698;2023-03-20T07:58:20;100563.47;;;26.51;40.54
32642;BME280;19323;56.072;9.698;2023-03-20T08:00:45;100566.31;;;26.49;40.51
32642;BME280;19323;56.072;9.698;2023-03-20T08:03:10;100558.09;;;26.51;40.49
32642;BME280;19323;56.072;9.698;2023-03-20T08:05:36;100562.63;;;26.50;40.54
32642;BME280;19323;56.072;9.698;2023-03-20T08:08:01;100564.47;;;26.50;40.57
32642;BME280;19323;56.072;9.698;2023-03-20T08:10:27;100562.63;;;26.50;40.43
32642;BME280;19323;56.072;9.698;2023-03-20T08:12:52;100564.47;;;26.50;40.36
32642;BME280;19323;56.072;9.698;2023-03-20T08:15:17;100560.13;;;26.49;40.62
32642;BME280;19323;56.072;9.698;2023-03-20T08:17:43;100563.63;;;26.49;40.78
32642;BME280;19323;56.072;9.698;2023-03-20T08:20:08;100559.09;;;26.50;40.79
32642;BME280;19323;56.072;9.698;2023-03-20T08:22:34;100563.63;;;26.49;40.55
32642;BME280;19323;56.072;9.698;2023-03-20T08:24:59;100569.84;;;26.50;40.39
32642;BME280;19323;56.072;9.698;2023-03-20T08:27:25;100560.94;;;26.49;40.41
32642;BME280;19323;56.072;9.698;2023-03-20T08:29:50;100568.16;;;26.49;40.41
32642;BME280;19323;56.072;9.698;2023-03-20T08:32:15;100569.00;;;26.49;40.40
32642;BME280;19323;56.072;9.698;2023-03-20T08:34:40;100576.22;;;26.49;40.38
32642;BME280;19323;56.072;9.698;2023-03-20T08:37:06;100571.69;;;26.49;40.82
32642;BME280;19323;56.072;9.698;2023-03-20T08:39:31;100579.06;;;26.47;40.28
32642;BME280;19323;56.072;9.698;2023-03-20T08:41:57;100571.03;;;26.47;40.69
32642;BME280;19323;56.072;9.698;2023-03-20T08:44:22;100571.22;;;26.46;40.68
32642;BME280;19323;56.072;9.698;2023-03-20T08:46:47;100570.34;;;26.45;40.28
32642;BME280;19323;56.072;9.698;2023-03-20T08:49:13;100547.88;;;26.30;40.64
32642;BME280;19323;56.072;9.698;2023-03-20T08:51:38;100581.28;;;26.44;40.77
32642;BME280;19323;56.072;9.698;2023-03-20T08:54:03;100574.06;;;26.44;40.30
32642;BME280;19323;56.072;9.698;2023-03-20T08:56:28;100577.72;;;26.43;40.51
32642;BME280;19323;56.072;9.698;2023-03-20T08:58:53;100577.72;;;26.43;40.36
32642;BME280;19323;56.072;9.698;2023-03-20T09:01:19;100573.38;;;26.42;40.36
32642;BME280;19323;56.072;9.698;2023-03-20T09:03:45;100575.22;;;26.42;40.57
32642;BME280;19323;56.072;9.698;2023-03-20T09:06:10;100575.22;;;26.42;40.41
32642;BME280;19323;56.072;9.698;2023-03-20T09:08:35;100575.03;;;26.43;40.66
32642;BME280;19323;56.072;9.698;2023-03-20T09:11:01;100568.00;;;26.42;40.31
32642;BME280;19323;56.072;9.698;2023-03-20T09:13:26;100566.16;;;26.43;40.61
32642;BME280;19323;56.072;9.698;2023-03-20T09:15:51;100573.38;;;26.42;40.69
32642;BME280;19323;56.072;9.698;2023-03-20T09:18:18;100576.91;;;26.43;40.71
32642;BME280;19323;56.072;9.698;2023-03-20T09:20:43;100577.91;;;26.42;40.70
32642;BME280;19323;56.072;9.698;2023-03-20T09:23:09;100581.44;;;26.42;40.76
32642;BME280;19323;56.072;9.698;2023-03-20T09:25:34;100586.81;;;26.42;40.51
32642;BME280;19323;56.072;9.698;2023-03-20T09:27:59;100592.19;;;26.42;40.39
32642;BME280;19323;56.072;9.698;2023-03-20T09:30:24;100583.09;;;26.43;40.76
32642;BME280;19323;56.072;9.698;2023-03-20T09:32:49;100590.31;;;26.43;40.80
32642;BME280;19323;56.072;9.698;2023-03-20T09:35:15;100592.19;;;26.42;40.63
32642;BME280;19323;56.072;9.698;2023-03-20T09:37:40;100596.72;;;26.42;40.87
32642;BME280;19323;56.072;9.698;2023-03-20T09:40:06;100596.22;;;26.38;40.61
32642;BME280;19323;56.072;9.698;2023-03-20T09:42:49;100601.41;;;26.40;40.92
32642;BME280;19323;56.072;9.698;2023-03-20T09:45:22;100599.72;;;26.39;40.56
32642;BME280;19323;56.072;9.698;2023-03-20T09:50:31;100600.75;;;26.38;40.74
32642;BME280;19323;56.072;9.698;2023-03-20T09:55:26;100606.44;;;26.35;40.72
32642;BME280;19323;56.072;9.698;2023-03-20T09:57:57;100608.28;;;26.34;41.14
32642;BME280;19323;56.072;9.698;2023-03-20T10:00:27;100602.09;;;26.34;41.01
32642;BME280;19323;56.072;9.698;2023-03-20T10:03:05;100607.47;;;26.34;40.70
32642;BME280;19323;56.072;9.698;2023-03-20T10:05:38;100598.56;;;26.33;40.97
32642;BME280;19323;56.072;9.698;2023-03-20T10:08:10;100610.13;;;26.34;40.86
32642;BME280;19323;56.072;9.698;2023-03-20T10:10:38;100606.44;;;26.35;40.78
32642;BME280;19323;56.072;9.698;2023-03-20T10:13:08;100599.25;;;26.35;40.67
32642;BME280;19323;56.072;9.698;2023-03-20T10:15:46;100601.94;;;26.35;40.80
32642;BME280;19323;56.072;9.698;2023-03-20T10:18:17;100601.06;;;26.35;40.76
32642;BME280;19323;56.072;9.698;2023-03-20T10:20:54;100597.53;;;26.34;40.68
32642;BME280;19323;56.072;9.698;2023-03-20T10:23:46;100594.69;;;26.36;40.90
32642;BME280;19323;56.072;9.698;2023-03-20T10:26:09;100594.88;;;26.34;40.65
32642;BME280;19323;56.072;9.698;2023-03-20T10:28:38;100594.88;;;26.34;41.04
32642;BME280;19323;56.072;9.698;2023-03-20T10:31:18;100593.88;;;26.35;41.09
32642;BME280;19323;56.072;9.698;2023-03-20T10:34:04;100596.56;;;26.35;41.07
32642;BME280;19323;56.072;9.698;2023-03-20T10:39:33;100593.88;;;26.35;40.66
32642;BME280;19323;56.072;9.698;2023-03-20T10:42:02;100582.09;;;26.36;40.77
32642;BME280;19323;56.072;9.698;2023-03-20T10:44:29;100594.53;;;26.37;40.64
32642;BME280;19323;56.072;9.698;2023-03-20T10:46:55;100591.84;;;26.37;41.04
32642;BME280;19323;56.072;9.698;2023-03-20T10:49:27;100590.84;;;26.38;40.80
32642;BME280;19323;56.072;9.698;2023-03-20T10:51:54;100588.97;;;26.39;40.76
32642;BME280;19323;56.072;9.698;2023-03-20T10:56:47;100595.03;;;26.41;40.81
32642;BME280;19323;56.072;9.698;2023-03-20T11:01:41;100591.34;;;26.42;40.51
32642;BME280;19323;56.072;9.698;2023-03-20T11:04:06;100591.34;;;26.42;40.73
32642;BME280;19323;56.072;9.698;2023-03-20T11:06:40;100587.63;;;26.43;40.58
32642;BME280;19323;56.072;9.698;2023-03-20T11:09:11;100590.50;;;26.41;40.68
32642;BME280;19323;56.072;9.698;2023-03-20T11:11:41;100605.59;;;26.42;40.51
32642;BME280;19323;56.072;9.698;2023-03-20T11:14:20;100591.34;;;26.42;40.36
32642;BME280;19323;56.072;9.698;2023-03-20T11:16:47;100591.34;;;26.42;40.31
32642;BME280;19323;56.072;9.698;2023-03-20T11:19:14;100596.88;;;26.40;40.78
32642;BME280;19323;56.072;9.698;2023-03-20T11:21:46;100588.81;;;26.40;40.68
32642;BME280;19323;56.072;9.698;2023-03-20T11:24:23;100596.03;;;26.40;40.75
32642;BME280;19323;56.072;9.698;2023-03-20T11:26:49;100593.53;;;26.38;40.46
32642;BME280;19323;56.072;9.698;2023-03-20T11:29:19;100585.47;;;26.38;40.82
32642;BME280;19323;56.072;9.698;2023-03-20T11:31:46;100590.00;;;26.38;40.75
32642;BME280;19323;56.072;9.698;2023-03-20T11:36:44;100586.28;;;26.39;40.95
32642;BME280;19323;56.072;9.698;2023-03-20T11:44:28;100588.16;;;26.38;41.07
32642;BME280;19323;56.072;9.698;2023-03-20T11:47:04;100581.13;;;26.37;40.83
32642;BME280;19323;56.072;9.698;2023-03-20T11:49:30;100584.63;;;26.38;41.19
32642;BME280;19323;56.072;9.698;2023-03-20T11:52:00;100559.09;;;26.17;41.12
32642;BME280;19323;56.072;9.698;2023-03-20T11:54:26;100580.94;;;26.39;41.28
32642;BME280;19323;56.072;9.698;2023-03-20T11:56:53;100588.81;;;26.40;40.88
32642;BME280;19323;56.072;9.698;2023-03-20T11:59:19;100581.59;;;26.41;41.19
32642;BME280;19323;56.072;9.698;2023-03-20T12:01:46;100585.13;;;26.41;41.16
32642;BME280;19323;56.072;9.698;2023-03-20T12:06:58;100579.44;;;26.44;41.19
32642;BME280;19323;56.072;9.698;2023-03-20T12:12:01;100583.09;;;26.43;41.09
32642;BME280;19323;56.072;9.698;2023-03-20T12:14:29;100578.59;;;26.44;41.09
32642;BME280;19323;56.072;9.698;2023-03-20T12:17:05;100589.34;;;26.44;40.63
32642;BME280;19323;56.072;9.698;2023-03-20T12:19:35;100589.16;;;26.45;40.69
32642;BME280;19323;56.072;9.698;2023-03-20T12:22:14;100587.47;;;26.44;40.81
32642;BME280;19323;56.072;9.698;2023-03-20T12:24:42;100588.31;;;26.45;41.18
32642;BME280;19323;56.072;9.698;2023-03-20T12:27:14;100591.84;;;26.45;40.85
32642;BME280;19323;56.072;9.698;2023-03-20T12:29:49;100593.53;;;26.46;40.70
32642;BME280;19323;56.072;9.698;2023-03-20T12:34:58;100592.69;;;26.46;40.66
32642;BME280;19323;56.072;9.698;2023-03-20T12:37:26;100596.38;;;26.45;40.65
32642;BME280;19323;56.072;9.698;2023-03-20T12:39:52;100594.50;;;26.45;41.07
32642;BME280;19323;56.072;9.698;2023-03-20T12:42:32;100593.69;;;26.45;40.65
32642;BME280;19323;56.072;9.698;2023-03-20T12:50:15;100595.53;;;26.44;40.65
32642;BME280;19323;56.072;9.698;2023-03-20T12:55:30;100601.91;;;26.43;41.02
32642;BME280;19323;56.072;9.698;2023-03-20T12:58:00;100600.25;;;26.42;41.12
32642;BME280;19323;56.072;9.698;2023-03-20T13:03:33;100595.84;;;26.41;40.87
32642;BME280;19323;56.072;9.698;2023-03-20T13:08:41;100609.13;;;26.43;40.89
32642;BME280;19323;56.072;9.698;2023-03-20T13:21:15;100593.84;;;26.43;40.64
32642;BME280;19323;56.072;9.698;2023-03-20T13:26:51;100598.38;;;26.43;40.62
32642;BME280;19323;56.072;9.698;2023-03-20T13:31:49;100599.88;;;26.45;40.60
32642;BME280;19323;56.072;9.698;2023-03-20T13:36:57;100591.84;;;26.45;40.84
32642;BME280;19323;56.072;9.698;2023-03-20T13:39:33;100592.03;;;26.44;40.61
32642;BME280;19323;56.072;9.698;2023-03-20T13:42:00;100593.69;;;26.45;40.93
32642;BME280;19323;56.072;9.698;2023-03-20T13:44:27;100589.16;;;26.45;40.82
32642;BME280;19323;56.072;9.698;2023-03-20T13:46:54;100592.84;;;26.44;40.61
32642;BME280;19323;56.072;9.698;2023-03-20T13:52:02;100580.09;;;26.46;40.54
32642;BME280;19323;56.072;9.698;2023-03-20T13:59:45;100583.47;;;26.48;40.59
32642;BME280;19323;56.072;9.698;2023-03-20T14:05:00;100578.09;;;26.48;40.56
32642;BME280;19323;56.072;9.698;2023-03-20T14:07:26;100573.53;;;26.49;40.50
32642;BME280;19323;56.072;9.698;2023-03-20T14:09:52;100577.06;;;26.49;40.57
32642;BME280;19323;56.072;9.698;2023-03-20T14:12:18;100569.19;;;26.48;40.71
32642;BME280;19323;56.072;9.698;2023-03-20T14:14:48;100578.09;;;26.48;40.81
32642;BME280;19323;56.072;9.698;2023-03-20T14:19:42;100580.78;;;26.48;40.59
32642;BME280;19323;56.072;9.698;2023-03-20T14:22:13;100581.59;;;26.49;40.88
32642;BME280;19323;56.072;9.698;2023-03-20T14:24:39;100575.72;;;26.45;40.67
32642;BME280;19323;56.072;9.698;2023-03-20T14:27:13;100578.59;;;26.44;40.64
32642;BME280;19323;56.072;9.698;2023-03-20T14:29:41;100577.72;;;26.43;40.70
32642;BME280;19323;56.072;9.698;2023-03-20T14:34:47;100583.97;;;26.44;40.71
32642;BME280;19323;56.072;9.698;2023-03-20T14:40:15;100582.28;;;26.43;40.97
32642;BME280;19323;56.072;9.698;2023-03-20T14:45:18;100587.63;;;26.43;40.94
32642;BME280;19323;56.072;9.698;2023-03-20T14:50:28;100590.31;;;26.43;40.76